createdAt,value
2022-08-26T00:01:01.321Z,19.10
2022-08-26T00:03:31.417Z,19.10
2022-08-26T00:06:00.478Z,19.10
2022-08-26T00:08:30.853Z,19.10
2022-08-26T00:10:59.984Z,19.10
2022-08-26T00:13:29.536Z,19.00
2022-08-26T00:16:00.181Z,19.10
2022-08-26T00:18:29.319Z,19.00
2022-08-26T00:21:06.233Z,19.00
2022-08-26T00:23:35.351Z,19.00
2022-08-26T00:26:05.644Z,18.90
2022-08-26T00:28:37.553Z,18.90
2022-08-26T00:31:10.807Z,18.90
2022-08-26T00:33:40.301Z,18.90
2022-08-26T00:36:20.003Z,18.90
2022-08-26T00:38:50.017Z,18.90
2022-08-26T00:41:21.351Z,18.90
2022-08-26T00:43:52.596Z,18.90
2022-08-26T00:46:29.382Z,18.90
2022-08-26T00:49:11.965Z,18.90
2022-08-26T00:51:50.826Z,18.80
2022-08-26T00:54:24.456Z,18.80
2022-08-26T00:57:03.997Z,18.80
2022-08-26T00:59:34.042Z,18.80
2022-08-26T01:02:30.142Z,18.80
2022-08-26T01:05:04.178Z,18.80
2022-08-26T01:07:36.617Z,18.70
2022-08-26T01:10:10.876Z,18.60
2022-08-26T01:12:46.868Z,18.50
2022-08-26T01:15:22.344Z,18.50
2022-08-26T01:17:52.991Z,18.40
2022-08-26T01:20:37.586Z,18.40
2022-08-26T01:23:09.506Z,18.40
2022-08-26T01:25:44.140Z,18.40
2022-08-26T01:28:18.047Z,18.40
2022-08-26T01:30:49.795Z,18.30
2022-08-26T01:33:24.797Z,18.40
2022-08-26T01:35:54.038Z,18.30
2022-08-26T01:38:24.093Z,18.30
2022-08-26T01:40:54.484Z,18.30
2022-08-26T01:43:29.131Z,18.30
2022-08-26T01:45:58.209Z,18.20
2022-08-26T01:48:33.115Z,18.20
2022-08-26T01:51:05.464Z,18.20
2022-08-26T01:53:37.870Z,18.10
2022-08-26T01:56:14.711Z,18.10
2022-08-26T01:58:48.669Z,18.10
2022-08-26T02:01:19.229Z,18.10
2022-08-26T02:03:59.925Z,18.00
2022-08-26T02:07:09.859Z,18.00
2022-08-26T02:09:41.722Z,17.90
2022-08-26T02:12:13.351Z,17.90
2022-08-26T02:14:53.302Z,17.90
2022-08-26T02:17:35.226Z,17.80
2022-08-26T02:20:05.768Z,17.80
2022-08-26T02:22:43.035Z,17.80
2022-08-26T02:25:25.334Z,17.80
2022-08-26T02:27:56.656Z,17.70
2022-08-26T02:30:28.659Z,17.70
2022-08-26T02:33:00.145Z,17.70
2022-08-26T02:35:28.760Z,17.70
2022-08-26T02:37:59.363Z,17.60
2022-08-26T02:40:54.909Z,17.50
2022-08-26T02:43:31.391Z,17.50
2022-08-26T02:46:02.536Z,17.50
2022-08-26T02:48:32.524Z,17.40
2022-08-26T02:51:02.824Z,17.40
2022-08-26T02:53:35.400Z,17.40
2022-08-26T02:56:31.284Z,17.40
2022-08-26T02:59:20.651Z,17.30
2022-08-26T03:01:56.047Z,17.30
2022-08-26T03:04:25.936Z,17.30
2022-08-26T03:06:55.582Z,17.30
2022-08-26T03:09:24.365Z,17.30
2022-08-26T03:11:55.584Z,17.30
2022-08-26T03:14:25.113Z,17.30
2022-08-26T03:16:55.251Z,17.20
2022-08-26T03:19:26.437Z,17.20
2022-08-26T03:21:57.919Z,17.20
2022-08-26T03:24:27.133Z,17.20
2022-08-26T03:26:57.438Z,17.20
2022-08-26T03:29:43.980Z,17.20
2022-08-26T03:32:18.197Z,17.20
2022-08-26T03:34:46.807Z,17.20
2022-08-26T03:37:16.247Z,17.30
2022-08-26T03:39:46.068Z,17.50
2022-08-26T03:42:45.319Z,17.40
2022-08-26T03:45:29.649Z,17.40
2022-08-26T03:47:58.455Z,17.40
2022-08-26T03:50:28.258Z,17.40
2022-08-26T03:52:58.276Z,17.40
2022-08-26T03:55:32.291Z,17.40
2022-08-26T03:58:04.056Z,17.40
2022-08-26T04:00:33.093Z,17.40
2022-08-26T04:03:03.431Z,17.40
2022-08-26T04:05:32.535Z,17.40
2022-08-26T04:08:01.345Z,17.40
2022-08-26T04:10:31.401Z,17.40
2022-08-26T04:13:28.119Z,17.40
2022-08-26T04:15:57.704Z,17.40
2022-08-26T04:18:32.651Z,17.40
2022-08-26T04:21:07.766Z,17.30
2022-08-26T04:23:47.205Z,17.30
2022-08-26T04:26:17.622Z,17.30
2022-08-26T04:28:56.668Z,17.40
2022-08-26T04:31:39.905Z,17.40
2022-08-26T04:34:34.431Z,17.40
2022-08-26T04:37:04.706Z,17.50
2022-08-26T04:39:35.610Z,17.50
2022-08-26T04:42:04.748Z,17.60
2022-08-26T04:44:37.797Z,17.60
2022-08-26T04:47:08.482Z,17.70
2022-08-26T04:49:38.462Z,17.70
2022-08-26T04:52:07.343Z,17.80
2022-08-26T04:54:36.415Z,17.90
2022-08-26T04:57:05.580Z,18.00
2022-08-26T04:59:39.355Z,18.00
2022-08-26T05:02:09.109Z,18.10
2022-08-26T05:04:38.041Z,18.20
2022-08-26T05:07:07.896Z,18.30
2022-08-26T05:09:38.824Z,18.30
2022-08-26T05:12:09.150Z,18.40
2022-08-26T05:14:39.272Z,18.50
2022-08-26T05:17:08.816Z,18.50
2022-08-26T05:19:38.585Z,18.60
2022-08-26T05:22:13.168Z,18.70
2022-08-26T05:25:01.716Z,18.80
2022-08-26T05:27:36.775Z,18.90
2022-08-26T05:30:09.220Z,18.90
2022-08-26T05:32:37.968Z,19.00
2022-08-26T05:35:08.874Z,19.10
2022-08-26T05:37:39.342Z,19.20
2022-08-26T05:40:09.265Z,19.30
2022-08-26T05:42:39.049Z,19.30
2022-08-26T05:45:10.236Z,19.50
2022-08-26T05:47:38.803Z,19.60
2022-08-26T05:50:09.520Z,19.70
2022-08-26T05:52:39.251Z,19.80
2022-08-26T05:55:09.848Z,20.00
2022-08-26T05:57:42.771Z,20.10
2022-08-26T06:00:16.805Z,20.20
2022-08-26T06:02:48.415Z,20.40
2022-08-26T06:05:17.411Z,20.40
2022-08-26T06:08:03.449Z,20.50
2022-08-26T06:10:33.449Z,20.60
2022-08-26T06:13:11.564Z,20.70
2022-08-26T06:15:47.605Z,20.70
2022-08-26T06:18:19.490Z,20.80
2022-08-26T06:20:57.745Z,20.90
2022-08-26T06:24:11.245Z,21.10
2022-08-26T06:26:42.764Z,21.10
2022-08-26T06:29:11.865Z,21.10
2022-08-26T06:31:46.616Z,21.20
2022-08-26T06:34:15.965Z,21.30
2022-08-26T06:36:49.451Z,21.30
2022-08-26T06:39:21.723Z,21.50
2022-08-26T06:41:51.319Z,21.50
2022-08-26T06:44:21.035Z,21.70
2022-08-26T06:46:51.393Z,21.80
2022-08-26T06:49:25.751Z,21.80
2022-08-26T06:51:58.559Z,22.00
2022-08-26T06:54:27.652Z,22.00
2022-08-26T06:56:57.355Z,22.10
2022-08-26T06:59:26.743Z,22.10
2022-08-26T07:01:57.059Z,22.10
2022-08-26T07:04:27.921Z,22.20
2022-08-26T07:06:57.495Z,22.20
2022-08-26T07:09:30.444Z,22.30
2022-08-26T07:11:59.422Z,22.40
2022-08-26T07:14:28.249Z,22.60
2022-08-26T07:17:01.451Z,22.80
2022-08-26T07:19:31.801Z,23.00
2022-08-26T07:22:03.469Z,23.10
2022-08-26T07:24:33.750Z,23.20
2022-08-26T07:27:08.643Z,23.20
2022-08-26T07:29:39.632Z,23.50
2022-08-26T07:32:12.797Z,23.70
2022-08-26T07:34:42.710Z,24.00
2022-08-26T07:37:11.693Z,24.30
2022-08-26T07:39:41.733Z,24.60
2022-08-26T07:42:14.939Z,24.90
2022-08-26T07:44:44.207Z,25.10
2022-08-26T07:47:25.573Z,25.40
2022-08-26T07:50:00.643Z,25.40
2022-08-26T07:52:32.373Z,25.50
2022-08-26T07:55:04.624Z,25.40
2022-08-26T07:57:33.752Z,25.30
2022-08-26T08:00:07.343Z,25.20
2022-08-26T08:02:37.364Z,25.10
2022-08-26T08:05:07.328Z,25.10
2022-08-26T08:07:44.656Z,25.00
2022-08-26T08:10:40.006Z,25.10
2022-08-26T08:13:10.055Z,25.00
2022-08-26T08:15:39.131Z,25.00
2022-08-26T08:18:14.043Z,25.00
2022-08-26T08:20:47.707Z,24.90
2022-08-26T08:23:28.027Z,24.90
2022-08-26T08:26:03.172Z,24.90
2022-08-26T08:28:31.929Z,25.00
2022-08-26T08:31:02.276Z,24.90
2022-08-26T08:33:35.230Z,24.90
2022-08-26T08:36:09.299Z,24.90
2022-08-26T08:38:38.181Z,24.90
2022-08-26T08:41:06.900Z,24.90
2022-08-26T08:43:46.476Z,24.90
2022-08-26T08:46:19.501Z,24.90
2022-08-26T08:48:59.180Z,24.90
2022-08-26T08:51:40.669Z,24.90
2022-08-26T08:54:11.190Z,24.90
2022-08-26T08:57:12.839Z,24.80
2022-08-26T08:59:53.683Z,24.90
2022-08-26T09:02:48.953Z,24.90
2022-08-26T09:05:25.083Z,25.00
2022-08-26T09:08:02.296Z,25.20
2022-08-26T09:10:40.062Z,25.50
2022-08-26T09:13:16.729Z,25.60
2022-08-26T09:16:01.066Z,25.60
2022-08-26T09:18:49.613Z,25.70
2022-08-26T09:21:23.840Z,25.70
2022-08-26T09:23:57.352Z,25.60
2022-08-26T09:26:30.803Z,25.60
2022-08-26T09:29:02.460Z,25.50
2022-08-26T09:31:34.120Z,25.70
2022-08-26T09:34:17.133Z,25.90
2022-08-26T09:36:51.588Z,26.00
2022-08-26T09:39:33.498Z,26.10
2022-08-26T09:42:10.925Z,26.40
2022-08-26T09:44:59.528Z,26.80
2022-08-26T09:47:31.993Z,27.10
2022-08-26T09:50:09.857Z,27.30
2022-08-26T09:52:43.053Z,27.30
2022-08-26T09:55:16.889Z,27.30
2022-08-26T09:57:51.760Z,27.20
2022-08-26T10:00:34.785Z,27.00
2022-08-26T10:03:12.458Z,26.90
2022-08-26T10:05:57.568Z,27.10
2022-08-26T10:08:32.833Z,27.40
2022-08-26T10:11:05.523Z,27.40
2022-08-26T10:13:47.010Z,27.50
2022-08-26T10:16:21.720Z,27.40
2022-08-26T10:19:00.617Z,27.40
2022-08-26T10:21:36.968Z,27.40
2022-08-26T10:24:11.312Z,27.40
2022-08-26T10:27:00.141Z,27.30
2022-08-26T10:29:37.449Z,27.20
2022-08-26T10:32:18.314Z,27.30
2022-08-26T10:35:02.516Z,27.40
2022-08-26T10:37:39.830Z,27.40
2022-08-26T10:40:19.954Z,27.40
2022-08-26T10:43:18.671Z,27.60
2022-08-26T10:45:53.042Z,27.80
2022-08-26T10:48:35.838Z,28.00
2022-08-26T10:51:06.420Z,27.90
2022-08-26T10:54:12.178Z,27.70
2022-08-26T10:56:54.543Z,27.70
2022-08-26T10:59:36.841Z,27.70
2022-08-26T11:02:15.250Z,27.70
2022-08-26T11:04:58.145Z,27.60
2022-08-26T11:07:37.119Z,27.40
2022-08-26T11:10:12.679Z,27.40
2022-08-26T11:12:59.671Z,27.50
2022-08-26T11:16:02.745Z,27.60
2022-08-26T11:18:56.117Z,27.70
2022-08-26T11:22:02.569Z,27.90
2022-08-26T11:25:00.958Z,28.00
2022-08-26T11:28:06.653Z,28.20
2022-08-26T11:30:57.000Z,28.20
2022-08-26T11:33:59.440Z,28.30
2022-08-26T11:37:05.576Z,28.40
2022-08-26T11:39:54.040Z,28.30
2022-08-26T11:42:37.049Z,28.40
2022-08-26T11:45:20.775Z,28.50
2022-08-26T11:47:49.655Z,28.40
2022-08-26T11:50:23.397Z,28.20
2022-08-26T11:53:02.039Z,28.00
2022-08-26T11:55:34.248Z,27.70
2022-08-26T11:58:07.685Z,27.60
2022-08-26T12:00:53.177Z,27.50
2022-08-26T12:03:26.971Z,27.50
2022-08-26T12:05:57.648Z,27.50
2022-08-26T12:08:31.265Z,27.50
2022-08-26T12:11:09.895Z,27.70
2022-08-26T12:13:39.399Z,27.90
2022-08-26T12:16:10.789Z,28.30
2022-08-26T12:18:40.687Z,28.50
2022-08-26T12:21:20.495Z,28.60
2022-08-26T12:23:54.753Z,28.60
2022-08-26T12:26:28.965Z,28.50
2022-08-26T12:29:01.784Z,28.30
2022-08-26T12:31:48.685Z,28.30
2022-08-26T12:34:19.376Z,28.30
2022-08-26T12:36:53.728Z,28.50
2022-08-26T12:39:30.406Z,28.60
2022-08-26T12:42:01.822Z,28.70
2022-08-26T12:44:38.396Z,28.80
2022-08-26T12:47:20.439Z,29.00
2022-08-26T12:50:06.223Z,29.00
2022-08-26T12:52:57.684Z,29.00
2022-08-26T12:55:39.448Z,29.20
2022-08-26T12:58:24.141Z,29.20
2022-08-26T13:00:55.350Z,29.30
2022-08-26T13:03:46.620Z,29.40
2022-08-26T13:06:31.702Z,29.50
2022-08-26T13:09:05.482Z,29.60
2022-08-26T13:11:59.305Z,29.70
2022-08-26T13:14:31.299Z,29.70
2022-08-26T13:17:03.651Z,29.70
2022-08-26T13:19:33.814Z,29.80
2022-08-26T13:22:09.088Z,29.70
2022-08-26T13:24:41.325Z,29.50
2022-08-26T13:27:13.280Z,29.30
2022-08-26T13:29:42.642Z,29.20
2022-08-26T13:32:11.688Z,29.20
2022-08-26T13:34:42.232Z,29.20
2022-08-26T13:37:11.232Z,29.00
2022-08-26T13:39:41.902Z,28.80
2022-08-26T13:42:10.980Z,28.80
2022-08-26T13:45:05.188Z,28.90
2022-08-26T13:47:33.940Z,29.00
2022-08-26T13:50:05.691Z,29.20
2022-08-26T13:52:34.880Z,29.30
2022-08-26T13:55:04.026Z,29.50
2022-08-26T13:57:32.828Z,29.60
2022-08-26T14:00:01.343Z,29.70
2022-08-26T14:02:31.464Z,29.80
2022-08-26T14:05:00.082Z,29.80
2022-08-26T14:07:30.162Z,29.80
2022-08-26T14:09:59.128Z,30.00
2022-08-26T14:12:27.721Z,29.90
2022-08-26T14:14:56.413Z,29.80
2022-08-26T14:17:26.268Z,29.80
2022-08-26T14:19:55.349Z,29.80
2022-08-26T14:22:24.633Z,29.80
2022-08-26T14:24:56.765Z,29.70
2022-08-26T14:27:25.798Z,29.50
2022-08-26T14:29:55.385Z,29.30
2022-08-26T14:32:30.085Z,29.20
2022-08-26T14:34:59.387Z,29.20
2022-08-26T14:37:28.425Z,29.10
2022-08-26T14:39:59.040Z,29.00
2022-08-26T14:42:31.326Z,28.90
2022-08-26T14:45:04.315Z,28.90
2022-08-26T14:47:33.674Z,28.90
2022-08-26T14:50:02.765Z,28.90
2022-08-26T14:52:51.427Z,28.90
2022-08-26T14:55:20.725Z,28.90
2022-08-26T14:57:50.249Z,28.80
2022-08-26T15:00:20.227Z,28.80
2022-08-26T15:02:49.111Z,28.80
2022-08-26T15:05:17.985Z,28.80
2022-08-26T15:07:46.710Z,28.70
2022-08-26T15:10:18.263Z,28.60
2022-08-26T15:13:16.468Z,28.60
2022-08-26T15:15:45.461Z,28.40
2022-08-26T15:18:14.134Z,28.30
2022-08-26T15:20:42.890Z,28.30
2022-08-26T15:23:12.093Z,28.20
2022-08-26T15:25:41.311Z,28.10
2022-08-26T15:28:10.161Z,28.00
2022-08-26T15:30:40.927Z,27.80
2022-08-26T15:33:15.403Z,27.80
2022-08-26T15:35:44.150Z,27.70
2022-08-26T15:38:13.942Z,27.60
2022-08-26T15:40:43.425Z,27.50
2022-08-26T15:43:27.796Z,27.50
2022-08-26T15:45:58.681Z,27.50
2022-08-26T15:48:27.846Z,27.50
2022-08-26T15:51:22.447Z,27.60
2022-08-26T15:53:52.193Z,27.60
2022-08-26T15:56:21.229Z,27.60
2022-08-26T15:59:15.425Z,27.60
2022-08-26T16:01:47.885Z,27.50
2022-08-26T16:04:18.020Z,27.50
2022-08-26T16:06:50.451Z,27.40
2022-08-26T16:09:19.992Z,27.40
2022-08-26T16:11:48.764Z,27.30
2022-08-26T16:14:17.877Z,27.20
2022-08-26T16:16:48.625Z,27.20
2022-08-26T16:19:17.923Z,27.10
2022-08-26T16:21:47.308Z,27.00
2022-08-26T16:24:16.666Z,26.90
2022-08-26T16:26:46.698Z,26.70
2022-08-26T16:29:17.611Z,26.60
2022-08-26T16:31:50.982Z,26.50
2022-08-26T16:34:19.760Z,26.40
2022-08-26T16:36:48.546Z,26.30
2022-08-26T16:39:17.489Z,26.20
2022-08-26T16:41:46.144Z,26.10
2022-08-26T16:44:14.916Z,25.90
2022-08-26T16:46:43.599Z,25.70
2022-08-26T16:49:13.752Z,25.70
2022-08-26T16:51:51.527Z,25.50
2022-08-26T16:54:45.702Z,25.30
2022-08-26T16:57:15.031Z,25.10
2022-08-26T16:59:43.804Z,25.00
2022-08-26T17:02:12.638Z,24.80
2022-08-26T17:04:46.178Z,24.70
2022-08-26T17:07:16.024Z,24.50
2022-08-26T17:09:45.141Z,24.40
2022-08-26T17:12:14.257Z,24.20
2022-08-26T17:14:42.905Z,24.00
2022-08-26T17:17:16.212Z,23.90
2022-08-26T17:19:46.984Z,23.70
2022-08-26T17:22:17.140Z,23.60
2022-08-26T17:24:46.038Z,23.40
2022-08-26T17:27:27.829Z,23.30
2022-08-26T17:29:56.745Z,23.20
2022-08-26T17:32:25.556Z,23.10
2022-08-26T17:34:56.034Z,22.90
2022-08-26T17:37:24.984Z,22.80
2022-08-26T17:39:53.702Z,22.60
2022-08-26T17:42:22.437Z,22.50
2022-08-26T17:45:00.645Z,22.30
2022-08-26T17:47:29.405Z,22.10
2022-08-26T17:50:01.065Z,22.00
2022-08-26T17:52:30.501Z,21.80
2022-08-26T17:55:00.114Z,21.70
2022-08-26T17:57:29.175Z,21.60
2022-08-26T17:59:58.037Z,21.40
2022-08-26T18:02:33.821Z,21.40
2022-08-26T18:05:18.658Z,21.20
2022-08-26T18:07:48.406Z,21.10
2022-08-26T18:10:20.397Z,21.00
2022-08-26T18:12:49.394Z,20.90
2022-08-26T18:15:19.222Z,20.80
2022-08-26T18:17:48.157Z,20.70
2022-08-26T18:20:21.487Z,20.60
2022-08-26T18:22:50.526Z,20.50
2022-08-26T18:25:19.412Z,20.40
2022-08-26T18:27:48.180Z,20.20
2022-08-26T18:30:20.809Z,20.10
2022-08-26T18:32:50.368Z,20.00
2022-08-26T18:35:21.576Z,19.90
2022-08-26T18:37:50.285Z,19.80
2022-08-26T18:40:19.164Z,19.80
2022-08-26T18:42:49.294Z,19.70
2022-08-26T18:45:29.034Z,19.70
2022-08-26T18:47:57.681Z,19.60
2022-08-26T18:50:27.882Z,19.50
2022-08-26T18:52:56.492Z,19.50
2022-08-26T18:55:25.438Z,19.40
2022-08-26T18:57:54.089Z,19.30
2022-08-26T19:00:23.572Z,19.30
2022-08-26T19:02:55.976Z,19.10
2022-08-26T19:05:26.818Z,19.00
2022-08-26T19:07:56.605Z,19.00
2022-08-26T19:10:25.977Z,18.90
2022-08-26T19:12:56.329Z,18.90
2022-08-26T19:15:27.787Z,18.80
2022-08-26T19:17:56.968Z,18.80
2022-08-26T19:20:27.124Z,18.80
2022-08-26T19:23:28.165Z,18.70
2022-08-26T19:25:56.499Z,18.80
2022-08-26T19:28:25.362Z,18.70
2022-08-26T19:30:54.060Z,18.70
2022-08-26T19:33:22.924Z,18.60
2022-08-26T19:36:17.700Z,18.70
2022-08-26T19:38:47.712Z,18.60
2022-08-26T19:41:19.927Z,18.50
2022-08-26T19:43:49.763Z,18.50
2022-08-26T19:46:32.147Z,18.50
2022-08-26T19:49:00.979Z,18.40
2022-08-26T19:51:36.792Z,18.40
2022-08-26T19:54:06.433Z,18.50
2022-08-26T19:56:38.272Z,18.50
2022-08-26T19:59:07.130Z,18.50
2022-08-26T20:01:35.829Z,18.40
2022-08-26T20:04:05.090Z,18.40
2022-08-26T20:06:35.410Z,18.30
2022-08-26T20:09:04.160Z,18.30
2022-08-26T20:11:32.886Z,18.20
2022-08-26T20:14:01.638Z,18.10
2022-08-26T20:16:30.514Z,18.10
2022-08-26T20:19:16.406Z,18.10
2022-08-26T20:21:46.825Z,18.00
2022-08-26T20:24:19.228Z,18.00
2022-08-26T20:26:48.895Z,17.90
2022-08-26T20:29:19.734Z,17.80
2022-08-26T20:31:49.694Z,17.80
2022-08-26T20:34:43.507Z,17.90
2022-08-26T20:37:14.308Z,18.00
2022-08-26T20:39:43.117Z,17.90
2022-08-26T20:42:19.937Z,17.90
2022-08-26T20:44:54.207Z,17.90
2022-08-26T20:47:24.016Z,17.90
2022-08-26T20:49:52.805Z,17.90
2022-08-26T20:52:22.732Z,17.90
2022-08-26T20:54:51.380Z,17.90
2022-08-26T20:57:20.189Z,17.90
2022-08-26T20:59:53.914Z,17.80
2022-08-26T21:02:22.691Z,17.80
2022-08-26T21:04:51.297Z,17.80
2022-08-26T21:07:21.021Z,17.80
2022-08-26T21:09:52.792Z,17.80
2022-08-26T21:12:46.575Z,17.80
2022-08-26T21:15:16.442Z,17.80
2022-08-26T21:17:45.491Z,17.80
2022-08-26T21:20:14.195Z,17.70
2022-08-26T21:22:43.341Z,17.70
2022-08-26T21:25:13.554Z,17.70
2022-08-26T21:27:42.284Z,17.70
2022-08-26T21:30:12.868Z,17.70
2022-08-26T21:32:42.009Z,17.70
2022-08-26T21:35:12.096Z,17.70
2022-08-26T21:37:40.904Z,17.60
2022-08-26T21:40:12.792Z,17.50
2022-08-26T21:42:41.668Z,17.50
2022-08-26T21:45:11.673Z,17.50
2022-08-26T21:47:40.917Z,17.50
2022-08-26T21:50:11.017Z,17.40
2022-08-26T21:52:40.776Z,17.40
2022-08-26T21:55:12.498Z,17.40
2022-08-26T21:57:41.474Z,17.40
2022-08-26T22:00:15.650Z,17.40
2022-08-26T22:02:44.413Z,17.40
2022-08-26T22:05:13.515Z,17.30
2022-08-26T22:07:42.245Z,17.30
2022-08-26T22:10:12.851Z,17.30
2022-08-26T22:12:41.501Z,17.20
2022-08-26T22:15:12.180Z,17.20
2022-08-26T22:17:40.864Z,17.10
2022-08-26T22:20:11.489Z,17.10
2022-08-26T22:22:45.256Z,17.00
2022-08-26T22:25:15.815Z,17.00
2022-08-26T22:27:44.394Z,16.80
2022-08-26T22:30:13.903Z,16.80
2022-08-26T22:32:44.251Z,16.70
2022-08-26T22:35:29.149Z,16.60
2022-08-26T22:37:59.797Z,16.60
2022-08-26T22:40:51.382Z,16.70
2022-08-26T22:43:20.644Z,16.70
2022-08-26T22:45:51.095Z,16.70
2022-08-26T22:48:22.286Z,16.70
2022-08-26T22:50:58.236Z,16.70
2022-08-26T22:53:29.204Z,16.70
2022-08-26T22:56:02.956Z,16.70
2022-08-26T22:58:32.182Z,16.70
2022-08-26T23:01:01.168Z,16.70
2022-08-26T23:03:30.135Z,16.70
2022-08-26T23:06:00.299Z,16.60
2022-08-26T23:08:29.108Z,16.60
2022-08-26T23:10:57.875Z,16.60
2022-08-26T23:13:27.937Z,16.60
2022-08-26T23:16:02.964Z,16.50
2022-08-26T23:18:32.149Z,16.60
2022-08-26T23:21:00.737Z,16.60
2022-08-26T23:23:29.561Z,16.60
2022-08-26T23:25:58.472Z,16.60
2022-08-26T23:28:28.616Z,16.50
2022-08-26T23:30:57.396Z,16.50
2022-08-26T23:33:46.273Z,16.60
2022-08-26T23:36:17.937Z,16.60
2022-08-26T23:38:53.077Z,16.50
2022-08-26T23:41:23.253Z,16.50
2022-08-26T23:43:54.022Z,16.40
2022-08-26T23:46:23.747Z,16.40
2022-08-26T23:48:54.224Z,16.40
2022-08-26T23:51:40.099Z,16.40
2022-08-26T23:54:08.985Z,16.40
2022-08-26T23:56:41.009Z,16.40
2022-08-26T23:59:17.298Z,16.30
